Portada
METAR-TAF:

METAR-TAF

Aeroports :

Aeroport de Melilla

Melilla, Espanya

latitud: 35-17N, longitud: 002-57W, altitud: 47 m

Observació

L'informe es va fer fa 30 minuts, a les 06:30 UTC
Vent 7 kt del Oest/Sud-Oest, variant entre Sud/Sud-Oest i Oest
Temperatura 23°C
Humitat 83%
Pressió 1014 hPa
Visibilitat 10 km o més
Escasses núvols a una alçada de 1000 ft
Núvols disperses a una alçada de 1600 ft

METAR: GEML 210630Z 25007KT 210V280 9999 FEW010 SCT016 23/20 Q1014

Hora: 09:00 (07:00 UTC)

Pronòstic

L'informe es va fer fa 5 hores i 0 minuts, a les 02:00 UTC
Pronòstic vàlid del 21 a les 03 UTC al 22 a les 03 UTC
Vent 6 kt del Oest
Visibilitat 10 km o més
Núvols disperses a una alçada de 1000 ft
Núvols disperses a una alçada de 1500 ft
Probabilitat 40% :
Temporalment
l' 21 a les 03 UTC al 21 a les 09 UTC
Cel ennuvolat a una alçada de 800 ft

TAF: GEML 210200Z 2103/2203 26006KT 9999 SCT010 SCT015 TX25/2114Z TN22/2106Z PROB40 TEMPO 2103/2109 BKN008

Observacions i pronòstics meteorològics de més de 4000 aeroports (METAR i TAF).

Les estacions disponibles són els punts grocs i vermells al mapa.

Posi el ratolí al punt desitjat per veure el nom de l'estació.

Feu clic per veure les observacions i els pronòstics meteorològics.

Per canviar el mapa: feu clic els botons verds amb una creu de color negre per apropar; al botó verd amb un guió per allunyar la imatge; o en les fletxes verdes per a mapes adjacents.


METAR-TAF: